sensor_id;sensor_type;location;lat;lon;timestamp;pressure;altitude;pressure_sealevel;temperature;humidity
47082;BME280;33066;49.296;14.470;2023-01-26T00:00:54;97446.54;;;7.74;36.78
47082;BME280;33066;49.296;14.470;2023-01-26T00:03:19;97443.82;;;7.84;36.68
47082;BME280;33066;49.296;14.470;2023-01-26T00:05:44;97437.13;;;7.77;36.72
47082;BME280;33066;49.296;14.470;2023-01-26T00:08:10;97438.00;;;7.49;36.75
47082;BME280;33066;49.296;14.470;2023-01-26T00:10:35;97430.15;;;7.71;36.78
47082;BME280;33066;49.296;14.470;2023-01-26T00:13:00;97425.73;;;7.42;36.86
47082;BME280;33066;49.296;14.470;2023-01-26T00:15:26;97422.68;;;7.74;36.81
47082;BME280;33066;49.296;14.470;2023-01-26T00:17:52;97415.45;;;7.80;36.78
47082;BME280;33066;49.296;14.470;2023-01-26T00:20:17;97412.41;;;7.78;36.74
47082;BME280;33066;49.296;14.470;2023-01-26T00:22:42;97406.98;;;7.46;36.79
47082;BME280;33066;49.296;14.470;2023-01-26T00:25:09;97402.04;;;7.67;36.80
47082;BME280;33066;49.296;14.470;2023-01-26T00:27:33;97399.65;;;7.96;36.87
47082;BME280;33066;49.296;14.470;2023-01-26T00:29:59;97398.40;;;7.64;37.00
47082;BME280;33066;49.296;14.470;2023-01-26T00:32:24;97401.56;;;7.53;37.23
47082;BME280;33066;49.296;14.470;2023-01-26T00:34:50;97397.25;;;7.56;37.14
47082;BME280;33066;49.296;14.470;2023-01-26T00:37:16;97394.25;;;7.63;37.08
47082;BME280;33066;49.296;14.470;2023-01-26T00:39:41;97388.33;;;7.67;36.93
47082;BME280;33066;49.296;14.470;2023-01-26T00:42:06;97389.30;;;7.62;36.90
47082;BME280;33066;49.296;14.470;2023-01-26T00:44:32;97389.33;;;7.37;37.06
47082;BME280;33066;49.296;14.470;2023-01-26T00:46:57;97391.27;;;7.55;37.09
47082;BME280;33066;49.296;14.470;2023-01-26T00:49:22;97394.48;;;7.49;37.12
47082;BME280;33066;49.296;14.470;2023-01-26T00:51:47;97393.31;;;7.49;37.20
47082;BME280;33066;49.296;14.470;2023-01-26T00:54:13;97392.22;;;7.47;37.12
47082;BME280;33066;49.296;14.470;2023-01-26T00:56:38;97393.75;;;7.66;37.24
47082;BME280;33066;49.296;14.470;2023-01-26T00:59:04;97394.97;;;7.44;37.21
47082;BME280;33066;49.296;14.470;2023-01-26T01:01:29;97394.64;;;7.38;37.26
47082;BME280;33066;49.296;14.470;2023-01-26T01:03:55;97393.77;;;7.29;37.28
47082;BME280;33066;49.296;14.470;2023-01-26T01:06:20;97396.04;;;7.16;37.42
47082;BME280;33066;49.296;14.470;2023-01-26T01:08:46;97400.91;;;7.49;37.43
47082;BME280;33066;49.296;14.470;2023-01-26T01:11:11;97400.40;;;7.27;37.34
47082;BME280;33066;49.296;14.470;2023-01-26T01:13:37;97395.90;;;7.27;37.46
47082;BME280;33066;49.296;14.470;2023-01-26T01:16:05;97397.43;;;7.32;37.32
47082;BME280;33066;49.296;14.470;2023-01-26T01:18:27;97396.66;;;7.39;37.34
47082;BME280;33066;49.296;14.470;2023-01-26T01:20:52;97395.13;;;7.42;37.36
47082;BME280;33066;49.296;14.470;2023-01-26T01:23:18;97395.51;;;7.50;37.19
47082;BME280;33066;49.296;14.470;2023-01-26T01:25:44;97396.42;;;7.64;36.91
47082;BME280;33066;49.296;14.470;2023-01-26T01:28:10;97394.45;;;7.64;36.88
47082;BME280;33066;49.296;14.470;2023-01-26T01:30:36;97390.15;;;7.51;36.81
47082;BME280;33066;49.296;14.470;2023-01-26T01:33:01;97389.23;;;7.13;36.76
47082;BME280;33066;49.296;14.470;2023-01-26T01:35:26;97386.40;;;7.55;36.88
47082;BME280;33066;49.296;14.470;2023-01-26T01:37:52;97387.56;;;7.36;36.90
47082;BME280;33066;49.296;14.470;2023-01-26T01:40:18;97383.40;;;7.40;36.84
47082;BME280;33066;49.296;14.470;2023-01-26T01:42:46;97377.34;;;7.43;36.83
47082;BME280;33066;49.296;14.470;2023-01-26T01:47:34;97368.76;;;7.62;36.78
47082;BME280;33066;49.296;14.470;2023-01-26T01:49:59;97368.37;;;7.68;36.72
47082;BME280;33066;49.296;14.470;2023-01-26T01:52:27;97368.81;;;7.88;36.83
47082;BME280;33066;49.296;14.470;2023-01-26T01:54:52;97368.08;;;7.43;36.94
47082;BME280;33066;49.296;14.470;2023-01-26T01:57:17;97370.89;;;7.38;37.04
47082;BME280;33066;49.296;14.470;2023-01-26T01:59:43;97370.65;;;7.36;37.18
47082;BME280;33066;49.296;14.470;2023-01-26T02:02:05;97373.07;;;7.20;37.21
47082;BME280;33066;49.296;14.470;2023-01-26T02:04:30;97369.00;;;7.23;37.30
47082;BME280;33066;49.296;14.470;2023-01-26T02:06:58;97371.70;;;7.51;37.55
47082;BME280;33066;49.296;14.470;2023-01-26T02:09:26;97376.11;;;7.35;37.42
47082;BME280;33066;49.296;14.470;2023-01-26T02:11:47;97376.88;;;7.43;37.39
47082;BME280;33066;49.296;14.470;2023-01-26T02:14:13;97368.74;;;7.38;37.26
47082;BME280;33066;49.296;14.470;2023-01-26T02:16:39;97363.10;;;7.34;37.26
47082;BME280;33066;49.296;14.470;2023-01-26T02:19:07;97358.78;;;7.53;37.30
47082;BME280;33066;49.296;14.470;2023-01-26T02:21:30;97361.50;;;7.18;37.44
47082;BME280;33066;49.296;14.470;2023-01-26T02:24:06;97358.02;;;7.21;37.53
47082;BME280;33066;49.296;14.470;2023-01-26T02:26:22;97352.50;;;7.39;37.49
47082;BME280;33066;49.296;14.470;2023-01-26T02:28:47;97351.93;;;7.39;37.48
47082;BME280;33066;49.296;14.470;2023-01-26T02:31:13;97348.79;;;7.14;37.48
47082;BME280;33066;49.296;14.470;2023-01-26T02:33:39;97346.37;;;7.16;37.57
47082;BME280;33066;49.296;14.470;2023-01-26T02:36:06;97347.34;;;7.18;37.53
47082;BME280;33066;49.296;14.470;2023-01-26T02:38:35;97349.46;;;7.43;37.34
47082;BME280;33066;49.296;14.470;2023-01-26T02:40:57;97344.88;;;7.25;37.23
47082;BME280;33066;49.296;14.470;2023-01-26T02:43:23;97343.03;;;7.29;37.30
47082;BME280;33066;49.296;14.470;2023-01-26T02:45:46;97342.13;;;7.29;37.35
47082;BME280;33066;49.296;14.470;2023-01-26T02:48:12;97339.98;;;7.51;37.25
47082;BME280;33066;49.296;14.470;2023-01-26T02:50:37;97338.57;;;7.25;37.13
47082;BME280;33066;49.296;14.470;2023-01-26T02:53:02;97333.14;;;7.19;37.19
47082;BME280;33066;49.296;14.470;2023-01-26T02:55:28;97333.94;;;7.16;37.13
47082;BME280;33066;49.296;14.470;2023-01-26T02:57:55;97338.01;;;7.25;36.89
47082;BME280;33066;49.296;14.470;2023-01-26T03:00:21;97337.38;;;7.30;37.01
47082;BME280;33066;49.296;14.470;2023-01-26T03:02:45;97340.32;;;7.51;37.16
47082;BME280;33066;49.296;14.470;2023-01-26T03:05:10;97339.08;;;7.33;37.17
47082;BME280;33066;49.296;14.470;2023-01-26T03:07:36;97338.39;;;7.36;36.95
47082;BME280;33066;49.296;14.470;2023-01-26T03:10:01;97336.70;;;7.32;36.99
47082;BME280;33066;49.296;14.470;2023-01-26T03:12:26;97335.46;;;7.32;36.97
47082;BME280;33066;49.296;14.470;2023-01-26T03:14:52;97333.19;;;7.30;37.19
47082;BME280;33066;49.296;14.470;2023-01-26T03:17:17;97330.48;;;7.26;37.23
47082;BME280;33066;49.296;14.470;2023-01-26T03:19:43;97328.12;;;7.48;37.30
47082;BME280;33066;49.296;14.470;2023-01-26T03:22:09;97326.33;;;7.25;37.38
47082;BME280;33066;49.296;14.470;2023-01-26T03:24:34;97325.10;;;7.53;37.25
47082;BME280;33066;49.296;14.470;2023-01-26T03:27:00;97322.92;;;7.30;37.38
47082;BME280;33066;49.296;14.470;2023-01-26T03:29:26;97319.36;;;7.28;37.38
47082;BME280;33066;49.296;14.470;2023-01-26T03:31:51;97313.65;;;7.30;37.53
47082;BME280;33066;49.296;14.470;2023-01-26T03:34:16;97309.65;;;7.27;37.41
47082;BME280;33066;49.296;14.470;2023-01-26T03:36:41;97308.72;;;7.13;37.54
47082;BME280;33066;49.296;14.470;2023-01-26T03:39:07;97310.14;;;7.38;37.51
47082;BME280;33066;49.296;14.470;2023-01-26T03:41:32;97308.33;;;7.59;37.65
47082;BME280;33066;49.296;14.470;2023-01-26T03:43:57;97304.80;;;7.21;37.63
47082;BME280;33066;49.296;14.470;2023-01-26T03:46:23;97301.18;;;7.14;37.51
47082;BME280;33066;49.296;14.470;2023-01-26T03:48:48;97299.51;;;7.17;37.55
47082;BME280;33066;49.296;14.470;2023-01-26T03:51:14;97299.55;;;7.45;37.48
47082;BME280;33066;49.296;14.470;2023-01-26T03:53:39;97296.98;;;7.14;37.68
47082;BME280;33066;49.296;14.470;2023-01-26T03:56:06;97295.75;;;7.19;37.71
47082;BME280;33066;49.296;14.470;2023-01-26T03:58:30;97295.57;;;7.46;37.78
47082;BME280;33066;49.296;14.470;2023-01-26T04:00:56;97295.04;;;7.22;37.78
47082;BME280;33066;49.296;14.470;2023-01-26T04:03:21;97292.69;;;7.28;37.61
47082;BME280;33066;49.296;14.470;2023-01-26T04:05:46;97294.29;;;7.25;37.73
47082;BME280;33066;49.296;14.470;2023-01-26T04:08:11;97294.47;;;7.29;37.48
47082;BME280;33066;49.296;14.470;2023-01-26T04:12:59;97288.38;;;7.66;37.05
47082;BME280;33066;49.296;14.470;2023-01-26T04:15:25;97287.19;;;7.56;37.09
47082;BME280;33066;49.296;14.470;2023-01-26T04:17:50;97283.27;;;7.47;37.16
47082;BME280;33066;49.296;14.470;2023-01-26T04:20:15;97278.74;;;7.39;37.33
47082;BME280;33066;49.296;14.470;2023-01-26T04:22:41;97276.13;;;7.34;37.35
47082;BME280;33066;49.296;14.470;2023-01-26T04:25:07;97272.83;;;7.26;37.43
47082;BME280;33066;49.296;14.470;2023-01-26T04:27:31;97267.56;;;7.26;37.40
47082;BME280;33066;49.296;14.470;2023-01-26T04:29:57;97264.40;;;7.24;37.32
47082;BME280;33066;49.296;14.470;2023-01-26T04:32:22;97266.27;;;7.21;37.31
47082;BME280;33066;49.296;14.470;2023-01-26T04:34:48;97262.31;;;7.44;37.45
47082;BME280;33066;49.296;14.470;2023-01-26T04:37:13;97257.89;;;7.18;37.50
47082;BME280;33066;49.296;14.470;2023-01-26T04:39:39;97257.72;;;7.33;37.34
47082;BME280;33066;49.296;14.470;2023-01-26T04:42:04;97254.97;;;7.28;37.40
47082;BME280;33066;49.296;14.470;2023-01-26T04:44:30;97251.13;;;7.24;37.43
47082;BME280;33066;49.296;14.470;2023-01-26T04:46:55;97247.03;;;7.25;37.40
47082;BME280;33066;49.296;14.470;2023-01-26T04:49:21;97245.47;;;7.28;37.53
47082;BME280;33066;49.296;14.470;2023-01-26T04:51:46;97247.37;;;7.34;37.76
47082;BME280;33066;49.296;14.470;2023-01-26T04:54:12;97244.43;;;7.34;37.53
47082;BME280;33066;49.296;14.470;2023-01-26T04:56:38;97246.78;;;7.35;37.53
47082;BME280;33066;49.296;14.470;2023-01-26T04:59:05;97245.05;;;7.56;37.56
47082;BME280;33066;49.296;14.470;2023-01-26T05:01:28;97239.60;;;7.34;37.50
47082;BME280;33066;49.296;14.470;2023-01-26T05:03:53;97239.13;;;7.37;37.95
47082;BME280;33066;49.296;14.470;2023-01-26T05:06:19;97241.41;;;7.44;38.40
47082;BME280;33066;49.296;14.470;2023-01-26T05:08:44;97239.92;;;7.56;37.91
47082;BME280;33066;49.296;14.470;2023-01-26T05:11:10;97240.55;;;7.31;37.78
47082;BME280;33066;49.296;14.470;2023-01-26T05:13:35;97241.79;;;7.48;38.19
47082;BME280;33066;49.296;14.470;2023-01-26T05:16:00;97241.12;;;7.49;37.61
47082;BME280;33066;49.296;14.470;2023-01-26T05:18:26;97240.38;;;7.48;37.60
47082;BME280;33066;49.296;14.470;2023-01-26T05:20:51;97241.54;;;7.22;38.19
47082;BME280;33066;49.296;14.470;2023-01-26T05:23:17;97241.22;;;7.48;37.98
47082;BME280;33066;49.296;14.470;2023-01-26T05:25:43;97241.38;;;7.53;38.05
47082;BME280;33066;49.296;14.470;2023-01-26T05:28:08;97243.89;;;7.36;37.76
47082;BME280;33066;49.296;14.470;2023-01-26T05:30:33;97245.38;;;7.36;37.69
47082;BME280;33066;49.296;14.470;2023-01-26T05:33:00;97244.77;;;7.39;37.24
47082;BME280;33066;49.296;14.470;2023-01-26T05:35:24;97244.35;;;7.41;36.58
47082;BME280;33066;49.296;14.470;2023-01-26T05:37:50;97248.16;;;7.40;36.40
47082;BME280;33066;49.296;14.470;2023-01-26T05:40:15;97242.89;;;7.28;36.58
47082;BME280;33066;49.296;14.470;2023-01-26T05:42:42;97244.30;;;7.01;37.06
47082;BME280;33066;49.296;14.470;2023-01-26T05:45:08;97244.86;;;7.17;37.53
47082;BME280;33066;49.296;14.470;2023-01-26T05:47:32;97242.52;;;7.10;37.16
47082;BME280;33066;49.296;14.470;2023-01-26T05:49:57;97243.72;;;7.08;37.83
47082;BME280;33066;49.296;14.470;2023-01-26T05:52:23;97247.27;;;6.94;38.32
47082;BME280;33066;49.296;14.470;2023-01-26T05:54:48;97244.79;;;7.14;38.48
47082;BME280;33066;49.296;14.470;2023-01-26T05:57:13;97245.96;;;6.84;38.76
47082;BME280;33066;49.296;14.470;2023-01-26T05:59:39;97246.69;;;7.16;38.60
47082;BME280;33066;49.296;14.470;2023-01-26T06:02:04;97246.86;;;7.27;38.25
47082;BME280;33066;49.296;14.470;2023-01-26T06:04:30;97245.74;;;7.11;37.64
47082;BME280;33066;49.296;14.470;2023-01-26T06:06:57;97248.27;;;7.25;37.23
47082;BME280;33066;49.296;14.470;2023-01-26T06:09:22;97248.42;;;7.40;37.20
47082;BME280;33066;49.296;14.470;2023-01-26T06:11:47;97244.95;;;7.45;36.93
47082;BME280;33066;49.296;14.470;2023-01-26T06:14:13;97245.23;;;7.26;36.50
47082;BME280;33066;49.296;14.470;2023-01-26T06:16:39;97241.73;;;7.52;36.22
47082;BME280;33066;49.296;14.470;2023-01-26T06:19:03;97239.17;;;7.06;36.37
47082;BME280;33066;49.296;14.470;2023-01-26T06:21:30;97238.67;;;6.85;36.32
47082;BME280;33066;49.296;14.470;2023-01-26T06:23:54;97236.92;;;7.44;36.29
47082;BME280;33066;49.296;14.470;2023-01-26T06:26:20;97240.03;;;7.21;36.33
47082;BME280;33066;49.296;14.470;2023-01-26T06:28:45;97239.48;;;7.20;36.52
47082;BME280;33066;49.296;14.470;2023-01-26T06:31:11;97239.02;;;7.58;36.73
47082;BME280;33066;49.296;14.470;2023-01-26T06:33:37;97238.68;;;7.32;36.53
47082;BME280;33066;49.296;14.470;2023-01-26T06:36:03;97236.88;;;7.33;36.63
47082;BME280;33066;49.296;14.470;2023-01-26T06:38:28;97237.32;;;7.32;36.53
47082;BME280;33066;49.296;14.470;2023-01-26T06:40:53;97235.52;;;7.32;36.32
47082;BME280;33066;49.296;14.470;2023-01-26T06:43:18;97231.36;;;7.41;36.32
47082;BME280;33066;49.296;14.470;2023-01-26T06:45:44;97230.91;;;7.37;36.43
47082;BME280;33066;49.296;14.470;2023-01-26T06:48:09;97235.30;;;7.29;36.44
47082;BME280;33066;49.296;14.470;2023-01-26T06:50:35;97231.30;;;7.49;36.44
47082;BME280;33066;49.296;14.470;2023-01-26T06:53:03;97234.25;;;7.30;36.63
47082;BME280;33066;49.296;14.470;2023-01-26T06:55:31;97234.52;;;7.29;36.75
47082;BME280;33066;49.296;14.470;2023-01-26T06:57:51;97229.80;;;7.41;36.53
47082;BME280;33066;49.296;14.470;2023-01-26T07:00:17;97230.39;;;7.48;36.32
47082;BME280;33066;49.296;14.470;2023-01-26T07:02:42;97232.35;;;7.44;36.19
47082;BME280;33066;49.296;14.470;2023-01-26T07:05:08;97234.86;;;7.32;36.28
47082;BME280;33066;49.296;14.470;2023-01-26T07:07:33;97239.04;;;7.63;36.48
47082;BME280;33066;49.296;14.470;2023-01-26T07:09:58;97235.69;;;7.65;36.49
47082;BME280;33066;49.296;14.470;2023-01-26T07:12:24;97233.77;;;7.67;36.96
47082;BME280;33066;49.296;14.470;2023-01-26T07:14:49;97233.14;;;7.69;36.48
47082;BME280;33066;49.296;14.470;2023-01-26T07:17:15;97233.04;;;7.63;36.24
47082;BME280;33066;49.296;14.470;2023-01-26T07:19:40;97227.74;;;7.55;36.38
47082;BME280;33066;49.296;14.470;2023-01-26T07:22:05;97230.08;;;7.66;37.31
47082;BME280;33066;49.296;14.470;2023-01-26T07:24:31;97227.98;;;7.50;36.54
47082;BME280;33066;49.296;14.470;2023-01-26T07:26:56;97226.76;;;7.56;36.69
47082;BME280;33066;49.296;14.470;2023-01-26T07:29:21;97223.47;;;7.59;36.85
47082;BME280;33066;49.296;14.470;2023-01-26T07:31:47;97224.41;;;7.50;36.57
47082;BME280;33066;49.296;14.470;2023-01-26T07:34:12;97222.82;;;7.48;36.51
47082;BME280;33066;49.296;14.470;2023-01-26T07:36:38;97223.55;;;7.40;36.95
47082;BME280;33066;49.296;14.470;2023-01-26T07:39:03;97224.03;;;7.52;36.53
47082;BME280;33066;49.296;14.470;2023-01-26T07:41:28;97227.38;;;7.44;36.72
47082;BME280;33066;49.296;14.470;2023-01-26T07:43:54;97224.57;;;7.60;37.36
47082;BME280;33066;49.296;14.470;2023-01-26T07:46:19;97224.27;;;7.40;36.76
47082;BME280;33066;49.296;14.470;2023-01-26T07:48:44;97225.02;;;7.50;36.89
47082;BME280;33066;49.296;14.470;2023-01-26T07:51:10;97222.16;;;7.57;36.10
47082;BME280;33066;49.296;14.470;2023-01-26T07:53:36;97219.60;;;7.71;36.49
47082;BME280;33066;49.296;14.470;2023-01-26T07:56:06;97219.82;;;7.34;36.40
47082;BME280;33066;49.296;14.470;2023-01-26T07:58:27;97223.85;;;7.63;36.29
47082;BME280;33066;49.296;14.470;2023-01-26T08:00:52;97222.93;;;7.58;36.39
47082;BME280;33066;49.296;14.470;2023-01-26T08:03:17;97220.24;;;7.51;36.38
47082;BME280;33066;49.296;14.470;2023-01-26T08:05:42;97218.66;;;7.50;36.26
47082;BME280;33066;49.296;14.470;2023-01-26T08:08:08;97216.48;;;7.40;36.17
47082;BME280;33066;49.296;14.470;2023-01-26T08:10:33;97217.61;;;7.41;36.28
47082;BME280;33066;49.296;14.470;2023-01-26T08:12:59;97218.35;;;7.39;36.47
47082;BME280;33066;49.296;14.470;2023-01-26T08:15:24;97214.09;;;7.37;36.53
47082;BME280;33066;49.296;14.470;2023-01-26T08:17:49;97212.54;;;7.36;36.49
47082;BME280;33066;49.296;14.470;2023-01-26T08:20:15;97206.56;;;7.41;36.46
47082;BME280;33066;49.296;14.470;2023-01-26T08:22:40;97205.67;;;7.49;36.41
47082;BME280;33066;49.296;14.470;2023-01-26T08:25:07;97205.63;;;7.54;36.33
47082;BME280;33066;49.296;14.470;2023-01-26T08:27:31;97201.26;;;7.55;36.22
47082;BME280;33066;49.296;14.470;2023-01-26T08:29:56;97204.41;;;7.63;35.99
47082;BME280;33066;49.296;14.470;2023-01-26T08:32:21;97205.04;;;7.51;36.00
47082;BME280;33066;49.296;14.470;2023-01-26T08:34:47;97205.06;;;7.29;35.95
47082;BME280;33066;49.296;14.470;2023-01-26T08:37:12;97201.65;;;7.57;36.01
47082;BME280;33066;49.296;14.470;2023-01-26T08:39:38;97198.23;;;7.55;35.96
47082;BME280;33066;49.296;14.470;2023-01-26T08:42:03;97197.81;;;7.41;36.86
47082;BME280;33066;49.296;14.470;2023-01-26T08:44:28;97196.58;;;7.24;36.81
47082;BME280;33066;49.296;14.470;2023-01-26T08:46:54;97195.68;;;7.24;36.94
47082;BME280;33066;49.296;14.470;2023-01-26T08:49:19;97194.75;;;7.31;36.66
47082;BME280;33066;49.296;14.470;2023-01-26T08:51:45;97193.52;;;7.33;36.74
47082;BME280;33066;49.296;14.470;2023-01-26T08:54:10;97191.64;;;7.25;36.22
47082;BME280;33066;49.296;14.470;2023-01-26T08:56:36;97189.99;;;7.35;35.76
47082;BME280;33066;49.296;14.470;2023-01-26T08:59:01;97193.87;;;7.47;35.82
47082;BME280;33066;49.296;14.470;2023-01-26T09:01:26;97195.37;;;7.25;35.71
47082;BME280;33066;49.296;14.470;2023-01-26T09:03:52;97198.12;;;7.52;35.17
47082;BME280;33066;49.296;14.470;2023-01-26T09:06:18;97201.19;;;7.62;34.99
47082;BME280;33066;49.296;14.470;2023-01-26T09:08:43;97200.01;;;7.43;34.85
47082;BME280;33066;49.296;14.470;2023-01-26T09:11:09;97197.11;;;7.77;34.31
47082;BME280;33066;49.296;14.470;2023-01-26T09:13:34;97200.31;;;7.57;33.96
47082;BME280;33066;49.296;14.470;2023-01-26T09:16:02;97199.27;;;7.52;33.96
47082;BME280;33066;49.296;14.470;2023-01-26T09:18:25;97199.49;;;7.88;34.08
47082;BME280;33066;49.296;14.470;2023-01-26T09:20:50;97198.27;;;7.96;34.09
47082;BME280;33066;49.296;14.470;2023-01-26T09:23:16;97197.07;;;7.88;33.60
47082;BME280;33066;49.296;14.470;2023-01-26T09:25:41;97195.21;;;7.79;34.50
47082;BME280;33066;49.296;14.470;2023-01-26T09:28:07;97203.36;;;7.80;34.58
47082;BME280;33066;49.296;14.470;2023-01-26T09:30:33;97207.05;;;7.61;34.58
47082;BME280;33066;49.296;14.470;2023-01-26T09:32:59;97204.15;;;7.56;34.38
47082;BME280;33066;49.296;14.470;2023-01-26T09:35:24;97207.80;;;7.92;34.31
47082;BME280;33066;49.296;14.470;2023-01-26T09:37:49;97209.97;;;7.84;34.26
47082;BME280;33066;49.296;14.470;2023-01-26T09:40:18;97208.15;;;7.63;34.53
47082;BME280;33066;49.296;14.470;2023-01-26T09:42:49;97205.79;;;7.57;34.63
47082;BME280;33066;49.296;14.470;2023-01-26T09:45:17;97206.19;;;7.48;34.67
47082;BME280;33066;49.296;14.470;2023-01-26T09:47:39;97202.03;;;7.22;34.58
47082;BME280;33066;49.296;14.470;2023-01-26T09:50:00;97205.52;;;7.43;34.77
47082;BME280;33066;49.296;14.470;2023-01-26T09:52:26;97207.41;;;7.50;34.42
47082;BME280;33066;49.296;14.470;2023-01-26T09:54:49;97209.38;;;7.50;34.67
47082;BME280;33066;49.296;14.470;2023-01-26T09:57:15;97211.35;;;7.31;34.63
47082;BME280;33066;49.296;14.470;2023-01-26T09:59:44;97208.08;;;7.42;34.35
47082;BME280;33066;49.296;14.470;2023-01-26T10:04:32;97210.93;;;7.38;36.47
47082;BME280;33066;49.296;14.470;2023-01-26T10:06:55;97208.76;;;7.26;35.20
47082;BME280;33066;49.296;14.470;2023-01-26T10:09:23;97202.08;;;7.38;35.34
47082;BME280;33066;49.296;14.470;2023-01-26T10:11:48;97200.32;;;7.52;36.45
47082;BME280;33066;49.296;14.470;2023-01-26T10:14:14;97194.21;;;7.69;36.50
47082;BME280;33066;49.296;14.470;2023-01-26T10:16:37;97192.47;;;7.77;35.85
47082;BME280;33066;49.296;14.470;2023-01-26T10:19:05;97186.13;;;7.69;35.95
47082;BME280;33066;49.296;14.470;2023-01-26T10:21:31;97184.01;;;7.56;35.81
47082;BME280;33066;49.296;14.470;2023-01-26T10:23:54;97182.93;;;7.72;37.69
47082;BME280;33066;49.296;14.470;2023-01-26T10:26:20;97182.51;;;7.61;37.06
47082;BME280;33066;49.296;14.470;2023-01-26T10:28:45;97177.06;;;7.63;37.45
47082;BME280;33066;49.296;14.470;2023-01-26T10:31:14;97176.02;;;7.51;37.56
47082;BME280;33066;49.296;14.470;2023-01-26T10:33:36;97173.30;;;7.43;37.67
47082;BME280;33066;49.296;14.470;2023-01-26T10:36:02;97172.54;;;7.23;37.48
47082;BME280;33066;49.296;14.470;2023-01-26T10:38:40;97172.61;;;7.67;37.77
47082;BME280;33066;49.296;14.470;2023-01-26T10:40:52;97173.30;;;7.24;38.19
47082;BME280;33066;49.296;14.470;2023-01-26T10:43:17;97173.40;;;7.55;38.06
47082;BME280;33066;49.296;14.470;2023-01-26T10:45:45;97169.67;;;7.48;37.69
47082;BME280;33066;49.296;14.470;2023-01-26T10:48:19;97165.13;;;7.79;37.50
47082;BME280;33066;49.296;14.470;2023-01-26T10:50:34;97161.03;;;7.53;37.30
47082;BME280;33066;49.296;14.470;2023-01-26T10:53:02;97158.85;;;7.41;37.99
47082;BME280;33066;49.296;14.470;2023-01-26T10:55:25;97157.47;;;7.39;38.24
47082;BME280;33066;49.296;14.470;2023-01-26T10:57:51;97158.18;;;7.38;38.48
47082;BME280;33066;49.296;14.470;2023-01-26T11:00:24;97158.81;;;7.38;38.79
47082;BME280;33066;49.296;14.470;2023-01-26T11:02:48;97159.80;;;7.59;37.92
47082;BME280;33066;49.296;14.470;2023-01-26T11:05:17;97159.48;;;7.28;37.22
47082;BME280;33066;49.296;14.470;2023-01-26T11:07:34;97158.91;;;7.28;36.92
47082;BME280;33066;49.296;14.470;2023-01-26T11:12:24;97156.22;;;7.09;37.42
47082;BME280;33066;49.296;14.470;2023-01-26T11:14:58;97152.23;;;7.17;37.44
47082;BME280;33066;49.296;14.470;2023-01-26T11:17:20;97149.21;;;7.27;37.34
47082;BME280;33066;49.296;14.470;2023-01-26T11:19:51;97150.08;;;7.23;36.91
47082;BME280;33066;49.296;14.470;2023-01-26T11:22:07;97151.43;;;7.40;36.99
47082;BME280;33066;49.296;14.470;2023-01-26T11:24:33;97152.31;;;7.08;37.13
47082;BME280;33066;49.296;14.470;2023-01-26T11:29:42;97155.83;;;7.29;37.20
47082;BME280;33066;49.296;14.470;2023-01-26T11:31:54;97156.79;;;6.89;37.28
47082;BME280;33066;49.296;14.470;2023-01-26T11:34:23;97151.22;;;6.95;37.42
47082;BME280;33066;49.296;14.470;2023-01-26T11:36:45;97153.90;;;6.90;37.58
47082;BME280;33066;49.296;14.470;2023-01-26T11:39:12;97153.86;;;6.65;37.82
47082;BME280;33066;49.296;14.470;2023-01-26T11:41:39;97155.86;;;6.58;37.95
47082;BME280;33066;49.296;14.470;2023-01-26T11:44:12;97147.52;;;6.79;37.82
47082;BME280;33066;49.296;14.470;2023-01-26T11:46:31;97150.29;;;6.56;37.75
47082;BME280;33066;49.296;14.470;2023-01-26T11:48:58;97144.92;;;6.66;37.85
47082;BME280;33066;49.296;14.470;2023-01-26T11:51:20;97141.12;;;6.39;37.96
47082;BME280;33066;49.296;14.470;2023-01-26T11:53:51;97141.95;;;6.64;38.01
47082;BME280;33066;49.296;14.470;2023-01-26T11:56:12;97139.07;;;6.74;38.05
47082;BME280;33066;49.296;14.470;2023-01-26T11:58:32;97137.05;;;6.51;37.70
47082;BME280;33066;49.296;14.470;2023-01-26T12:00:56;97135.91;;;6.79;37.83
47082;BME280;33066;49.296;14.470;2023-01-26T12:03:24;97138.44;;;6.74;38.49
47082;BME280;33066;49.296;14.470;2023-01-26T12:05:47;97132.61;;;6.55;39.28
47082;BME280;33066;49.296;14.470;2023-01-26T12:08:15;97133.86;;;6.82;39.55
47082;BME280;33066;49.296;14.470;2023-01-26T12:10:40;97130.00;;;6.73;39.44
47082;BME280;33066;49.296;14.470;2023-01-26T12:13:09;97131.45;;;6.33;39.53
47082;BME280;33066;49.296;14.470;2023-01-26T12:15:32;97131.86;;;6.58;39.27
47082;BME280;33066;49.296;14.470;2023-01-26T12:17:57;97133.93;;;6.64;40.06
47082;BME280;33066;49.296;14.470;2023-01-26T12:20:25;97138.23;;;6.53;39.47
47082;BME280;33066;49.296;14.470;2023-01-26T12:22:46;97136.61;;;6.74;39.20
47082;BME280;33066;49.296;14.470;2023-01-26T12:25:16;97128.72;;;6.73;39.20
47082;BME280;33066;49.296;14.470;2023-01-26T12:27:37;97128.24;;;6.76;39.09
47082;BME280;33066;49.296;14.470;2023-01-26T12:30:04;97128.09;;;6.70;39.14
47082;BME280;33066;49.296;14.470;2023-01-26T12:32:25;97127.54;;;6.52;38.71
47082;BME280;33066;49.296;14.470;2023-01-26T12:34:50;97124.55;;;6.33;39.07
47082;BME280;33066;49.296;14.470;2023-01-26T12:37:24;97123.88;;;6.27;39.43
47082;BME280;33066;49.296;14.470;2023-01-26T12:39:44;97123.58;;;6.24;39.75
47082;BME280;33066;49.296;14.470;2023-01-26T12:42:16;97117.51;;;6.07;39.14
47082;BME280;33066;49.296;14.470;2023-01-26T12:44:36;97111.39;;;5.98;39.14
47082;BME280;33066;49.296;14.470;2023-01-26T12:47:00;97109.97;;;5.90;39.69
47082;BME280;33066;49.296;14.470;2023-01-26T12:49:25;97107.41;;;6.37;39.77
47082;BME280;33066;49.296;14.470;2023-01-26T12:51:49;97104.45;;;5.88;39.65
47082;BME280;33066;49.296;14.470;2023-01-26T12:54:17;97106.58;;;6.07;39.96
47082;BME280;33066;49.296;14.470;2023-01-26T12:56:41;97107.83;;;5.83;40.09
47082;BME280;33066;49.296;14.470;2023-01-26T12:59:10;97106.97;;;5.90;40.22
47082;BME280;33066;49.296;14.470;2023-01-26T13:01:36;97103.66;;;6.23;40.35